sensor_id;sensor_type;location;lat;lon;timestamp;P1;durP1;ratioP1;P2;durP2;ratioP2
14748;SDS011;7466;53.574;9.976;2023-06-14T00:00:51;7.30;;;3.00;;
14748;SDS011;7466;53.574;9.976;2023-06-14T00:03:18;3.87;;;3.33;;
14748;SDS011;7466;53.574;9.976;2023-06-14T00:05:47;4.63;;;2.87;;
14748;SDS011;7466;53.574;9.976;2023-06-14T00:08:15;4.47;;;2.97;;
14748;SDS011;7466;53.574;9.976;2023-06-14T00:10:43;3.33;;;3.03;;
14748;SDS011;7466;53.574;9.976;2023-06-14T00:13:12;5.43;;;3.43;;
14748;SDS011;7466;53.574;9.976;2023-06-14T00:15:39;4.60;;;3.60;;
14748;SDS011;7466;53.574;9.976;2023-06-14T00:18:06;4.17;;;3.33;;
14748;SDS011;7466;53.574;9.976;2023-06-14T00:20:33;5.47;;;3.23;;
14748;SDS011;7466;53.574;9.976;2023-06-14T00:22:59;7.43;;;3.50;;
14748;SDS011;7466;53.574;9.976;2023-06-14T00:25:27;4.07;;;3.30;;
14748;SDS011;7466;53.574;9.976;2023-06-14T00:27:54;3.63;;;3.33;;
14748;SDS011;7466;53.574;9.976;2023-06-14T00:30:23;4.90;;;3.30;;
14748;SDS011;7466;53.574;9.976;2023-06-14T00:32:55;4.83;;;3.13;;
14748;SDS011;7466;53.574;9.976;2023-06-14T00:35:22;5.23;;;3.23;;
14748;SDS011;7466;53.574;9.976;2023-06-14T00:37:50;6.60;;;3.17;;
14748;SDS011;7466;53.574;9.976;2023-06-14T00:40:17;3.97;;;3.60;;
14748;SDS011;7466;53.574;9.976;2023-06-14T00:42:44;5.13;;;3.37;;
14748;SDS011;7466;53.574;9.976;2023-06-14T00:45:10;3.50;;;3.00;;
14748;SDS011;7466;53.574;9.976;2023-06-14T00:47:40;6.23;;;2.87;;
14748;SDS011;7466;53.574;9.976;2023-06-14T00:50:09;4.87;;;3.30;;
14748;SDS011;7466;53.574;9.976;2023-06-14T00:52:36;3.67;;;3.20;;
14748;SDS011;7466;53.574;9.976;2023-06-14T00:55:03;4.67;;;3.50;;
14748;SDS011;7466;53.574;9.976;2023-06-14T00:57:32;4.87;;;3.20;;
14748;SDS011;7466;53.574;9.976;2023-06-14T01:00:03;4.13;;;3.03;;
14748;SDS011;7466;53.574;9.976;2023-06-14T01:02:33;3.33;;;3.03;;
14748;SDS011;7466;53.574;9.976;2023-06-14T01:05:03;3.50;;;3.20;;
14748;SDS011;7466;53.574;9.976;2023-06-14T01:07:33;3.90;;;3.30;;
14748;SDS011;7466;53.574;9.976;2023-06-14T01:10:26;3.40;;;3.10;;
14748;SDS011;7466;53.574;9.976;2023-06-14T01:13:03;3.27;;;3.00;;
14748;SDS011;7466;53.574;9.976;2023-06-14T01:15:34;5.33;;;3.47;;
14748;SDS011;7466;53.574;9.976;2023-06-14T01:18:01;5.03;;;3.40;;
14748;SDS011;7466;53.574;9.976;2023-06-14T01:20:31;4.27;;;3.60;;
14748;SDS011;7466;53.574;9.976;2023-06-14T01:23:03;5.30;;;3.53;;
14748;SDS011;7466;53.574;9.976;2023-06-14T01:25:31;3.73;;;3.37;;
14748;SDS011;7466;53.574;9.976;2023-06-14T01:27:58;3.80;;;3.50;;
14748;SDS011;7466;53.574;9.976;2023-06-14T01:30:28;6.33;;;3.33;;
14748;SDS011;7466;53.574;9.976;2023-06-14T01:32:58;7.03;;;3.60;;
14748;SDS011;7466;53.574;9.976;2023-06-14T01:35:25;5.90;;;3.40;;
14748;SDS011;7466;53.574;9.976;2023-06-14T01:37:52;6.70;;;3.70;;
14748;SDS011;7466;53.574;9.976;2023-06-14T01:40:21;4.03;;;3.63;;
14748;SDS011;7466;53.574;9.976;2023-06-14T01:42:49;3.93;;;3.23;;
14748;SDS011;7466;53.574;9.976;2023-06-14T01:45:18;7.03;;;3.60;;
14748;SDS011;7466;53.574;9.976;2023-06-14T01:47:45;4.20;;;3.23;;
14748;SDS011;7466;53.574;9.976;2023-06-14T01:50:13;5.17;;;3.50;;
14748;SDS011;7466;53.574;9.976;2023-06-14T01:52:40;4.87;;;3.40;;
14748;SDS011;7466;53.574;9.976;2023-06-14T01:55:07;5.13;;;3.30;;
14748;SDS011;7466;53.574;9.976;2023-06-14T01:57:36;4.83;;;3.60;;
14748;SDS011;7466;53.574;9.976;2023-06-14T02:00:03;5.13;;;3.37;;
14748;SDS011;7466;53.574;9.976;2023-06-14T02:02:31;6.67;;;3.50;;
14748;SDS011;7466;53.574;9.976;2023-06-14T02:04:57;4.97;;;3.73;;
14748;SDS011;7466;53.574;9.976;2023-06-14T02:07:24;4.87;;;3.60;;
14748;SDS011;7466;53.574;9.976;2023-06-14T02:09:51;3.67;;;3.37;;
14748;SDS011;7466;53.574;9.976;2023-06-14T02:12:18;4.10;;;3.70;;
14748;SDS011;7466;53.574;9.976;2023-06-14T02:14:46;4.50;;;3.50;;
14748;SDS011;7466;53.574;9.976;2023-06-14T02:17:13;5.23;;;3.67;;
14748;SDS011;7466;53.574;9.976;2023-06-14T02:19:41;4.73;;;4.00;;
14748;SDS011;7466;53.574;9.976;2023-06-14T02:22:08;4.67;;;3.50;;
14748;SDS011;7466;53.574;9.976;2023-06-14T02:24:35;7.37;;;3.70;;
14748;SDS011;7466;53.574;9.976;2023-06-14T02:27:03;3.67;;;3.37;;
14748;SDS011;7466;53.574;9.976;2023-06-14T02:29:31;6.47;;;3.83;;
14748;SDS011;7466;53.574;9.976;2023-06-14T02:31:59;5.67;;;3.70;;
14748;SDS011;7466;53.574;9.976;2023-06-14T02:34:26;4.77;;;3.80;;
14748;SDS011;7466;53.574;9.976;2023-06-14T02:36:53;3.80;;;3.50;;
14748;SDS011;7466;53.574;9.976;2023-06-14T02:39:21;5.77;;;3.80;;
14748;SDS011;7466;53.574;9.976;2023-06-14T02:41:49;6.53;;;3.87;;
14748;SDS011;7466;53.574;9.976;2023-06-14T02:44:17;5.60;;;3.40;;
14748;SDS011;7466;53.574;9.976;2023-06-14T02:46:44;4.23;;;3.77;;
14748;SDS011;7466;53.574;9.976;2023-06-14T02:49:12;6.40;;;3.73;;
14748;SDS011;7466;53.574;9.976;2023-06-14T02:51:39;5.77;;;3.67;;
14748;SDS011;7466;53.574;9.976;2023-06-14T02:54:07;5.67;;;3.83;;
14748;SDS011;7466;53.574;9.976;2023-06-14T02:56:34;4.87;;;3.83;;
14748;SDS011;7466;53.574;9.976;2023-06-14T02:59:01;5.27;;;4.20;;
14748;SDS011;7466;53.574;9.976;2023-06-14T03:01:27;8.43;;;4.17;;
14748;SDS011;7466;53.574;9.976;2023-06-14T03:03:59;4.53;;;3.90;;
14748;SDS011;7466;53.574;9.976;2023-06-14T03:06:28;5.20;;;3.63;;
14748;SDS011;7466;53.574;9.976;2023-06-14T03:08:55;4.37;;;3.60;;
14748;SDS011;7466;53.574;9.976;2023-06-14T03:11:24;5.33;;;3.70;;
14748;SDS011;7466;53.574;9.976;2023-06-14T03:13:51;5.30;;;3.70;;
14748;SDS011;7466;53.574;9.976;2023-06-14T03:16:18;6.47;;;3.80;;
14748;SDS011;7466;53.574;9.976;2023-06-14T03:18:47;7.03;;;3.70;;
14748;SDS011;7466;53.574;9.976;2023-06-14T03:21:14;4.20;;;3.80;;
14748;SDS011;7466;53.574;9.976;2023-06-14T03:23:43;6.47;;;4.10;;
14748;SDS011;7466;53.574;9.976;2023-06-14T03:26:10;6.77;;;3.87;;
14748;SDS011;7466;53.574;9.976;2023-06-14T03:28:38;11.73;;;4.07;;
14748;SDS011;7466;53.574;9.976;2023-06-14T03:31:05;5.63;;;3.73;;
14748;SDS011;7466;53.574;9.976;2023-06-14T03:33:32;6.03;;;4.10;;
14748;SDS011;7466;53.574;9.976;2023-06-14T03:35:58;7.30;;;3.47;;
14748;SDS011;7466;53.574;9.976;2023-06-14T03:38:25;5.17;;;3.70;;
14748;SDS011;7466;53.574;9.976;2023-06-14T03:40:53;4.30;;;3.70;;
14748;SDS011;7466;53.574;9.976;2023-06-14T03:43:20;6.67;;;4.20;;
14748;SDS011;7466;53.574;9.976;2023-06-14T03:45:47;6.80;;;3.83;;
14748;SDS011;7466;53.574;9.976;2023-06-14T03:48:13;7.93;;;4.10;;
14748;SDS011;7466;53.574;9.976;2023-06-14T03:50:40;5.30;;;4.20;;
14748;SDS011;7466;53.574;9.976;2023-06-14T03:53:08;5.50;;;3.83;;
14748;SDS011;7466;53.574;9.976;2023-06-14T03:55:35;6.17;;;3.87;;
14748;SDS011;7466;53.574;9.976;2023-06-14T03:58:04;5.90;;;3.93;;
14748;SDS011;7466;53.574;9.976;2023-06-14T04:00:31;5.60;;;3.90;;
14748;SDS011;7466;53.574;9.976;2023-06-14T04:02:58;8.20;;;4.27;;
14748;SDS011;7466;53.574;9.976;2023-06-14T04:05:25;7.90;;;4.10;;
14748;SDS011;7466;53.574;9.976;2023-06-14T04:07:52;7.80;;;4.07;;
14748;SDS011;7466;53.574;9.976;2023-06-14T04:10:27;4.87;;;4.37;;
14748;SDS011;7466;53.574;9.976;2023-06-14T04:12:54;6.63;;;4.00;;
14748;SDS011;7466;53.574;9.976;2023-06-14T04:15:22;4.17;;;3.73;;
14748;SDS011;7466;53.574;9.976;2023-06-14T04:17:49;4.97;;;4.10;;
14748;SDS011;7466;53.574;9.976;2023-06-14T04:20:15;6.30;;;4.27;;
14748;SDS011;7466;53.574;9.976;2023-06-14T04:22:43;7.60;;;4.47;;
14748;SDS011;7466;53.574;9.976;2023-06-14T04:25:11;6.40;;;4.10;;
14748;SDS011;7466;53.574;9.976;2023-06-14T04:27:40;5.53;;;3.87;;
14748;SDS011;7466;53.574;9.976;2023-06-14T04:30:07;5.33;;;4.53;;
14748;SDS011;7466;53.574;9.976;2023-06-14T04:32:35;5.97;;;4.50;;
14748;SDS011;7466;53.574;9.976;2023-06-14T04:35:04;5.37;;;4.27;;
14748;SDS011;7466;53.574;9.976;2023-06-14T04:37:32;6.27;;;4.30;;
14748;SDS011;7466;53.574;9.976;2023-06-14T04:39:59;4.83;;;4.43;;
14748;SDS011;7466;53.574;9.976;2023-06-14T04:42:26;9.53;;;4.40;;
14748;SDS011;7466;53.574;9.976;2023-06-14T04:44:55;8.40;;;4.33;;
14748;SDS011;7466;53.574;9.976;2023-06-14T04:47:22;5.60;;;4.20;;
14748;SDS011;7466;53.574;9.976;2023-06-14T04:49:56;8.33;;;4.17;;
14748;SDS011;7466;53.574;9.976;2023-06-14T04:52:23;4.37;;;3.90;;
14748;SDS011;7466;53.574;9.976;2023-06-14T04:54:51;6.50;;;4.17;;
14748;SDS011;7466;53.574;9.976;2023-06-14T04:57:19;5.77;;;4.20;;
14748;SDS011;7466;53.574;9.976;2023-06-14T04:59:47;6.00;;;4.07;;
14748;SDS011;7466;53.574;9.976;2023-06-14T05:02:19;5.67;;;3.97;;
14748;SDS011;7466;53.574;9.976;2023-06-14T05:04:46;9.63;;;4.33;;
14748;SDS011;7466;53.574;9.976;2023-06-14T05:07:15;8.40;;;4.30;;
14748;SDS011;7466;53.574;9.976;2023-06-14T05:09:42;5.23;;;3.73;;
14748;SDS011;7466;53.574;9.976;2023-06-14T05:12:09;9.93;;;4.40;;
14748;SDS011;7466;53.574;9.976;2023-06-14T05:14:36;6.67;;;4.20;;
14748;SDS011;7466;53.574;9.976;2023-06-14T05:17:04;5.53;;;4.10;;
14748;SDS011;7466;53.574;9.976;2023-06-14T05:19:31;6.03;;;4.27;;
14748;SDS011;7466;53.574;9.976;2023-06-14T05:22:00;5.87;;;4.40;;
14748;SDS011;7466;53.574;9.976;2023-06-14T05:24:29;4.33;;;4.00;;
14748;SDS011;7466;53.574;9.976;2023-06-14T05:26:57;5.80;;;3.90;;
14748;SDS011;7466;53.574;9.976;2023-06-14T05:29:24;9.07;;;4.43;;
14748;SDS011;7466;53.574;9.976;2023-06-14T05:31:52;6.40;;;4.23;;
14748;SDS011;7466;53.574;9.976;2023-06-14T05:34:33;5.43;;;3.90;;
14748;SDS011;7466;53.574;9.976;2023-06-14T05:37:00;5.63;;;3.97;;
14748;SDS011;7466;53.574;9.976;2023-06-14T05:39:30;6.83;;;4.10;;
14748;SDS011;7466;53.574;9.976;2023-06-14T05:41:57;7.53;;;4.37;;
14748;SDS011;7466;53.574;9.976;2023-06-14T05:44:24;4.97;;;3.37;;
14748;SDS011;7466;53.574;9.976;2023-06-14T05:46:51;5.37;;;3.77;;
14748;SDS011;7466;53.574;9.976;2023-06-14T05:49:17;4.37;;;3.77;;
14748;SDS011;7466;53.574;9.976;2023-06-14T05:51:44;6.47;;;3.87;;
14748;SDS011;7466;53.574;9.976;2023-06-14T05:54:11;7.57;;;3.83;;
14748;SDS011;7466;53.574;9.976;2023-06-14T05:56:41;5.53;;;4.00;;
14748;SDS011;7466;53.574;9.976;2023-06-14T05:59:08;5.47;;;3.87;;
14748;SDS011;7466;53.574;9.976;2023-06-14T06:01:35;4.27;;;3.47;;
14748;SDS011;7466;53.574;9.976;2023-06-14T06:04:02;4.97;;;4.00;;
14748;SDS011;7466;53.574;9.976;2023-06-14T06:06:30;8.97;;;4.07;;
14748;SDS011;7466;53.574;9.976;2023-06-14T06:08:57;6.23;;;3.87;;
14748;SDS011;7466;53.574;9.976;2023-06-14T06:11:24;5.20;;;3.57;;
14748;SDS011;7466;53.574;9.976;2023-06-14T06:13:52;4.70;;;3.47;;
14748;SDS011;7466;53.574;9.976;2023-06-14T06:16:19;3.77;;;3.47;;
14748;SDS011;7466;53.574;9.976;2023-06-14T06:18:46;8.60;;;3.60;;
14748;SDS011;7466;53.574;9.976;2023-06-14T06:21:13;6.30;;;4.10;;
14748;SDS011;7466;53.574;9.976;2023-06-14T06:23:42;5.77;;;3.70;;
14748;SDS011;7466;53.574;9.976;2023-06-14T06:26:09;4.40;;;3.30;;
14748;SDS011;7466;53.574;9.976;2023-06-14T06:28:37;9.60;;;3.77;;
14748;SDS011;7466;53.574;9.976;2023-06-14T06:31:05;6.47;;;3.30;;
14748;SDS011;7466;53.574;9.976;2023-06-14T06:33:32;3.60;;;3.30;;
14748;SDS011;7466;53.574;9.976;2023-06-14T06:36:00;4.37;;;3.30;;
14748;SDS011;7466;53.574;9.976;2023-06-14T06:38:27;5.60;;;3.70;;
14748;SDS011;7466;53.574;9.976;2023-06-14T06:40:53;5.60;;;3.60;;
14748;SDS011;7466;53.574;9.976;2023-06-14T06:43:21;5.57;;;3.47;;
14748;SDS011;7466;53.574;9.976;2023-06-14T06:45:48;3.80;;;3.40;;
14748;SDS011;7466;53.574;9.976;2023-06-14T06:48:16;5.43;;;3.30;;
14748;SDS011;7466;53.574;9.976;2023-06-14T06:50:43;3.33;;;3.00;;
14748;SDS011;7466;53.574;9.976;2023-06-14T06:53:10;3.47;;;3.17;;
14748;SDS011;7466;53.574;9.976;2023-06-14T06:55:37;4.63;;;3.00;;
14748;SDS011;7466;53.574;9.976;2023-06-14T06:58:04;4.67;;;2.97;;
14748;SDS011;7466;53.574;9.976;2023-06-14T07:00:31;4.37;;;3.40;;
14748;SDS011;7466;53.574;9.976;2023-06-14T07:03:00;6.43;;;3.23;;
14748;SDS011;7466;53.574;9.976;2023-06-14T07:05:30;6.03;;;2.73;;
14748;SDS011;7466;53.574;9.976;2023-06-14T07:07:57;3.00;;;2.43;;
14748;SDS011;7466;53.574;9.976;2023-06-14T07:10:25;4.93;;;2.60;;
14748;SDS011;7466;53.574;9.976;2023-06-14T07:12:51;4.53;;;3.10;;
14748;SDS011;7466;53.574;9.976;2023-06-14T07:15:18;3.10;;;2.90;;
14748;SDS011;7466;53.574;9.976;2023-06-14T07:17:45;2.83;;;2.60;;
14748;SDS011;7466;53.574;9.976;2023-06-14T07:20:12;3.77;;;3.00;;
14748;SDS011;7466;53.574;9.976;2023-06-14T07:22:42;3.37;;;2.90;;
14748;SDS011;7466;53.574;9.976;2023-06-14T07:25:09;3.17;;;2.63;;
14748;SDS011;7466;53.574;9.976;2023-06-14T07:27:39;3.53;;;2.90;;
14748;SDS011;7466;53.574;9.976;2023-06-14T07:30:09;5.37;;;3.00;;
14748;SDS011;7466;53.574;9.976;2023-06-14T07:32:37;5.13;;;2.60;;
14748;SDS011;7466;53.574;9.976;2023-06-14T07:35:06;4.20;;;2.60;;
14748;SDS011;7466;53.574;9.976;2023-06-14T07:37:33;4.70;;;2.90;;
14748;SDS011;7466;53.574;9.976;2023-06-14T07:40:02;2.70;;;2.60;;
14748;SDS011;7466;53.574;9.976;2023-06-14T07:42:32;6.00;;;2.70;;
14748;SDS011;7466;53.574;9.976;2023-06-14T07:45:00;6.77;;;2.70;;
14748;SDS011;7466;53.574;9.976;2023-06-14T07:47:27;4.73;;;2.70;;
14748;SDS011;7466;53.574;9.976;2023-06-14T07:49:54;3.77;;;2.80;;
14748;SDS011;7466;53.574;9.976;2023-06-14T07:52:22;2.67;;;2.43;;
14748;SDS011;7466;53.574;9.976;2023-06-14T07:54:48;3.40;;;2.50;;
14748;SDS011;7466;53.574;9.976;2023-06-14T07:57:16;4.40;;;2.73;;
14748;SDS011;7466;53.574;9.976;2023-06-14T07:59:45;3.20;;;2.90;;
14748;SDS011;7466;53.574;9.976;2023-06-14T08:02:11;3.67;;;2.43;;
14748;SDS011;7466;53.574;9.976;2023-06-14T08:04:38;3.60;;;2.70;;
14748;SDS011;7466;53.574;9.976;2023-06-14T08:07:08;4.00;;;2.67;;
14748;SDS011;7466;53.574;9.976;2023-06-14T08:09:36;4.30;;;2.80;;
14748;SDS011;7466;53.574;9.976;2023-06-14T08:12:03;4.70;;;2.67;;
14748;SDS011;7466;53.574;9.976;2023-06-14T08:14:33;9.63;;;2.80;;
14748;SDS011;7466;53.574;9.976;2023-06-14T08:17:00;3.73;;;2.77;;
14748;SDS011;7466;53.574;9.976;2023-06-14T08:19:27;3.50;;;2.80;;
14748;SDS011;7466;53.574;9.976;2023-06-14T08:21:55;6.60;;;2.80;;
14748;SDS011;7466;53.574;9.976;2023-06-14T08:24:25;6.17;;;2.67;;
14748;SDS011;7466;53.574;9.976;2023-06-14T08:26:52;7.70;;;3.07;;
14748;SDS011;7466;53.574;9.976;2023-06-14T08:29:19;4.07;;;3.07;;
14748;SDS011;7466;53.574;9.976;2023-06-14T08:31:48;7.70;;;3.10;;
14748;SDS011;7466;53.574;9.976;2023-06-14T08:34:14;20.50;;;3.72;;
14748;SDS011;7466;53.574;9.976;2023-06-14T08:36:41;2.77;;;2.57;;
14748;SDS011;7466;53.574;9.976;2023-06-14T08:39:08;3.20;;;2.90;;
14748;SDS011;7466;53.574;9.976;2023-06-14T08:41:35;10.70;;;3.30;;
14748;SDS011;7466;53.574;9.976;2023-06-14T08:44:02;5.37;;;3.00;;
14748;SDS011;7466;53.574;9.976;2023-06-14T08:46:29;4.65;;;3.10;;
14748;SDS011;7466;53.574;9.976;2023-06-14T08:49:01;6.15;;;2.80;;
14748;SDS011;7466;53.574;9.976;2023-06-14T08:51:30;7.05;;;3.13;;
14748;SDS011;7466;53.574;9.976;2023-06-14T08:53:59;6.50;;;3.03;;
14748;SDS011;7466;53.574;9.976;2023-06-14T08:56:27;3.20;;;2.70;;
14748;SDS011;7466;53.574;9.976;2023-06-14T08:58:54;3.47;;;2.90;;
14748;SDS011;7466;53.574;9.976;2023-06-14T09:01:22;4.22;;;3.00;;
14748;SDS011;7466;53.574;9.976;2023-06-14T09:03:51;4.60;;;2.88;;
14748;SDS011;7466;53.574;9.976;2023-06-14T09:06:21;4.03;;;3.30;;
14748;SDS011;7466;53.574;9.976;2023-06-14T09:08:48;3.78;;;3.33;;
14748;SDS011;7466;53.574;9.976;2023-06-14T09:11:15;3.78;;;2.80;;
14748;SDS011;7466;53.574;9.976;2023-06-14T09:13:44;3.40;;;3.05;;
14748;SDS011;7466;53.574;9.976;2023-06-14T09:16:11;4.93;;;2.80;;
14748;SDS011;7466;53.574;9.976;2023-06-14T09:18:38;8.00;;;3.30;;
14748;SDS011;7466;53.574;9.976;2023-06-14T09:21:06;4.30;;;3.13;;
14748;SDS011;7466;53.574;9.976;2023-06-14T09:23:37;5.25;;;3.42;;
14748;SDS011;7466;53.574;9.976;2023-06-14T09:26:07;5.68;;;3.10;;
14748;SDS011;7466;53.574;9.976;2023-06-14T09:28:35;3.17;;;2.92;;
14748;SDS011;7466;53.574;9.976;2023-06-14T09:31:02;5.10;;;3.38;;
14748;SDS011;7466;53.574;9.976;2023-06-14T09:33:28;5.28;;;3.30;;
14748;SDS011;7466;53.574;9.976;2023-06-14T09:35:57;6.18;;;3.45;;
14748;SDS011;7466;53.574;9.976;2023-06-14T09:38:24;4.78;;;3.13;;
14748;SDS011;7466;53.574;9.976;2023-06-14T09:40:53;3.90;;;3.20;;
14748;SDS011;7466;53.574;9.976;2023-06-14T09:43:22;5.07;;;3.13;;
14748;SDS011;7466;53.574;9.976;2023-06-14T09:45:52;5.05;;;3.22;;
14748;SDS011;7466;53.574;9.976;2023-06-14T09:48:20;4.65;;;3.13;;
14748;SDS011;7466;53.574;9.976;2023-06-14T09:50:47;5.88;;;3.03;;
14748;SDS011;7466;53.574;9.976;2023-06-14T09:53:16;3.53;;;3.20;;
14748;SDS011;7466;53.574;9.976;2023-06-14T09:55:48;4.60;;;3.15;;
14748;SDS011;7466;53.574;9.976;2023-06-14T09:58:17;3.97;;;3.20;;
14748;SDS011;7466;53.574;9.976;2023-06-14T10:00:49;11.50;;;3.30;;
14748;SDS011;7466;53.574;9.976;2023-06-14T10:03:21;13.70;;;3.70;;
14748;SDS011;7466;53.574;9.976;2023-06-14T10:05:51;4.18;;;3.20;;
14748;SDS011;7466;53.574;9.976;2023-06-14T10:08:19;4.63;;;3.08;;
14748;SDS011;7466;53.574;9.976;2023-06-14T10:10:50;3.50;;;3.03;;
14748;SDS011;7466;53.574;9.976;2023-06-14T10:13:19;6.45;;;2.95;;
14748;SDS011;7466;53.574;9.976;2023-06-14T10:15:50;4.07;;;3.03;;
14748;SDS011;7466;53.574;9.976;2023-06-14T10:18:24;4.40;;;3.00;;
14748;SDS011;7466;53.574;9.976;2023-06-14T10:21:01;4.65;;;3.42;;
14748;SDS011;7466;53.574;9.976;2023-06-14T10:23:35;3.50;;;3.20;;
14748;SDS011;7466;53.574;9.976;2023-06-14T10:26:07;6.07;;;3.25;;
14748;SDS011;7466;53.574;9.976;2023-06-14T10:28:35;6.75;;;3.50;;
14748;SDS011;7466;53.574;9.976;2023-06-14T10:31:06;6.78;;;3.20;;
14748;SDS011;7466;53.574;9.976;2023-06-14T10:33:34;6.35;;;2.97;;
14748;SDS011;7466;53.574;9.976;2023-06-14T10:36:09;6.88;;;3.15;;
14748;SDS011;7466;53.574;9.976;2023-06-14T10:38:36;6.63;;;3.35;;
14748;SDS011;7466;53.574;9.976;2023-06-14T10:41:04;4.72;;;3.28;;
14748;SDS011;7466;53.574;9.976;2023-06-14T10:43:31;3.60;;;3.30;;
14748;SDS011;7466;53.574;9.976;2023-06-14T10:46:16;5.47;;;3.10;;
14748;SDS011;7466;53.574;9.976;2023-06-14T10:48:46;6.97;;;3.10;;
14748;SDS011;7466;53.574;9.976;2023-06-14T10:51:17;7.07;;;3.55;;
14748;SDS011;7466;53.574;9.976;2023-06-14T10:53:46;7.72;;;3.05;;
14748;SDS011;7466;53.574;9.976;2023-06-14T10:56:24;4.25;;;2.90;;
14748;SDS011;7466;53.574;9.976;2023-06-14T10:58:53;3.35;;;2.80;;
14748;SDS011;7466;53.574;9.976;2023-06-14T11:01:26;5.93;;;3.08;;
14748;SDS011;7466;53.574;9.976;2023-06-14T11:04:06;8.13;;;3.45;;
14748;SDS011;7466;53.574;9.976;2023-06-14T11:06:43;7.70;;;3.53;;
14748;SDS011;7466;53.574;9.976;2023-06-14T11:09:26;7.75;;;3.17;;
14748;SDS011;7466;53.574;9.976;2023-06-14T11:12:12;4.22;;;3.20;;
14748;SDS011;7466;53.574;9.976;2023-06-14T11:14:40;6.80;;;3.13;;
14748;SDS011;7466;53.574;9.976;2023-06-14T11:17:08;6.32;;;3.58;;
14748;SDS011;7466;53.574;9.976;2023-06-14T11:19:38;4.07;;;3.40;;
14748;SDS011;7466;53.574;9.976;2023-06-14T11:22:05;7.65;;;3.50;;
14748;SDS011;7466;53.574;9.976;2023-06-14T11:24:32;7.55;;;3.33;;
14748;SDS011;7466;53.574;9.976;2023-06-14T11:26:59;3.17;;;2.88;;
14748;SDS011;7466;53.574;9.976;2023-06-14T11:29:25;4.40;;;3.00;;
14748;SDS011;7466;53.574;9.976;2023-06-14T11:31:54;5.00;;;3.30;;
14748;SDS011;7466;53.574;9.976;2023-06-14T11:34:24;9.13;;;3.50;;
14748;SDS011;7466;53.574;9.976;2023-06-14T11:36:50;5.05;;;3.33;;
14748;SDS011;7466;53.574;9.976;2023-06-14T11:39:23;4.47;;;3.53;;
14748;SDS011;7466;53.574;9.976;2023-06-14T11:41:51;3.80;;;3.50;;
14748;SDS011;7466;53.574;9.976;2023-06-14T11:44:17;6.65;;;3.60;;
14748;SDS011;7466;53.574;9.976;2023-06-14T11:46:44;4.35;;;3.33;;
14748;SDS011;7466;53.574;9.976;2023-06-14T11:49:11;5.45;;;3.20;;
14748;SDS011;7466;53.574;9.976;2023-06-14T11:51:40;4.72;;;3.30;;
14748;SDS011;7466;53.574;9.976;2023-06-14T11:54:09;4.45;;;3.20;;
14748;SDS011;7466;53.574;9.976;2023-06-14T11:56:36;3.70;;;3.40;;
14748;SDS011;7466;53.574;9.976;2023-06-14T11:59:03;7.10;;;3.10;;
14748;SDS011;7466;53.574;9.976;2023-06-14T12:01:30;4.53;;;3.00;;
14748;SDS011;7466;53.574;9.976;2023-06-14T12:03:59;4.95;;;3.00;;
14748;SDS011;7466;53.574;9.976;2023-06-14T12:06:26;4.30;;;3.08;;
14748;SDS011;7466;53.574;9.976;2023-06-14T12:08:59;4.13;;;2.67;;
14748;SDS011;7466;53.574;9.976;2023-06-14T12:11:31;4.68;;;3.20;;
14748;SDS011;7466;53.574;9.976;2023-06-14T12:13:59;3.65;;;3.10;;
14748;SDS011;7466;53.574;9.976;2023-06-14T12:16:34;9.25;;;3.25;;
14748;SDS011;7466;53.574;9.976;2023-06-14T12:19:08;7.70;;;3.00;;
14748;SDS011;7466;53.574;9.976;2023-06-14T12:21:38;7.55;;;2.97;;
14748;SDS011;7466;53.574;9.976;2023-06-14T12:24:07;3.50;;;3.10;;
14748;SDS011;7466;53.574;9.976;2023-06-14T12:26:37;4.20;;;3.13;;
14748;SDS011;7466;53.574;9.976;2023-06-14T12:29:05;3.30;;;3.00;;
14748;SDS011;7466;53.574;9.976;2023-06-14T12:31:33;7.00;;;3.20;;
14748;SDS011;7466;53.574;9.976;2023-06-14T12:34:00;5.35;;;3.15;;
14748;SDS011;7466;53.574;9.976;2023-06-14T12:36:27;8.82;;;3.40;;
14748;SDS011;7466;53.574;9.976;2023-06-14T12:38:54;6.95;;;3.53;;
14748;SDS011;7466;53.574;9.976;2023-06-14T12:41:23;3.33;;;2.88;;
14748;SDS011;7466;53.574;9.976;2023-06-14T12:43:51;5.38;;;3.25;;
14748;SDS011;7466;53.574;9.976;2023-06-14T12:46:18;3.72;;;3.25;;
14748;SDS011;7466;53.574;9.976;2023-06-14T12:48:45;3.42;;;3.03;;
14748;SDS011;7466;53.574;9.976;2023-06-14T12:51:12;4.70;;;2.97;;
14748;SDS011;7466;53.574;9.976;2023-06-14T12:53:39;3.58;;;2.92;;
14748;SDS011;7466;53.574;9.976;2023-06-14T12:56:06;5.22;;;3.28;;
14748;SDS011;7466;53.574;9.976;2023-06-14T12:58:34;5.93;;;3.25;;
14748;SDS011;7466;53.574;9.976;2023-06-14T13:01:01;7.25;;;2.95;;
14748;SDS011;7466;53.574;9.976;2023-06-14T13:03:27;6.03;;;3.28;;
14748;SDS011;7466;53.574;9.976;2023-06-14T13:05:54;5.30;;;3.05;;
14748;SDS011;7466;53.574;9.976;2023-06-14T13:08:21;5.97;;;3.38;;
14748;SDS011;7466;53.574;9.976;2023-06-14T13:10:48;3.15;;;2.85;;
14748;SDS011;7466;53.574;9.976;2023-06-14T13:13:14;5.53;;;3.22;;
14748;SDS011;7466;53.574;9.976;2023-06-14T13:15:43;5.53;;;3.08;;
14748;SDS011;7466;53.574;9.976;2023-06-14T13:18:11;3.38;;;3.08;;
14748;SDS011;7466;53.574;9.976;2023-06-14T13:20:38;5.00;;;2.85;;
14748;SDS011;7466;53.574;9.976;2023-06-14T13:23:05;6.30;;;3.10;;
14748;SDS011;7466;53.574;9.976;2023-06-14T13:25:32;8.27;;;3.08;;
14748;SDS011;7466;53.574;9.976;2023-06-14T13:27:59;6.15;;;2.83;;
14748;SDS011;7466;53.574;9.976;2023-06-14T13:30:26;3.60;;;2.65;;
14748;SDS011;7466;53.574;9.976;2023-06-14T13:32:54;3.25;;;2.70;;
14748;SDS011;7466;53.574;9.976;2023-06-14T13:35:21;4.90;;;2.92;;
14748;SDS011;7466;53.574;9.976;2023-06-14T13:37:47;3.28;;;2.97;;
14748;SDS011;7466;53.574;9.976;2023-06-14T13:40:14;6.88;;;2.80;;
14748;SDS011;7466;53.574;9.976;2023-06-14T13:42:41;8.02;;;2.90;;
14748;SDS011;7466;53.574;9.976;2023-06-14T13:45:10;4.93;;;2.97;;
14748;SDS011;7466;53.574;9.976;2023-06-14T13:47:37;7.00;;;2.90;;
14748;SDS011;7466;53.574;9.976;2023-06-14T13:50:07;6.22;;;3.10;;
14748;SDS011;7466;53.574;9.976;2023-06-14T13:52:34;3.15;;;2.80;;
14748;SDS011;7466;53.574;9.976;2023-06-14T13:55:01;4.38;;;2.72;;
14748;SDS011;7466;53.574;9.976;2023-06-14T13:57:28;5.30;;;2.95;;
14748;SDS011;7466;53.574;9.976;2023-06-14T13:59:59;3.92;;;2.85;;
14748;SDS011;7466;53.574;9.976;2023-06-14T14:02:26;3.15;;;2.78;;
14748;SDS011;7466;53.574;9.976;2023-06-14T14:04:54;3.83;;;2.70;;
14748;SDS011;7466;53.574;9.976;2023-06-14T14:07:22;3.60;;;2.88;;
14748;SDS011;7466;53.574;9.976;2023-06-14T14:09:55;3.25;;;2.67;;
14748;SDS011;7466;53.574;9.976;2023-06-14T14:12:23;4.40;;;3.10;;
14748;SDS011;7466;53.574;9.976;2023-06-14T14:14:50;5.95;;;3.95;;
14748;SDS011;7466;53.574;9.976;2023-06-14T14:17:17;4.35;;;2.97;;
14748;SDS011;7466;53.574;9.976;2023-06-14T14:19:44;5.05;;;3.08;;
14748;SDS011;7466;53.574;9.976;2023-06-14T14:22:10;7.30;;;2.95;;
14748;SDS011;7466;53.574;9.976;2023-06-14T14:24:39;8.50;;;3.00;;
14748;SDS011;7466;53.574;9.976;2023-06-14T14:27:05;3.67;;;2.72;;
14748;SDS011;7466;53.574;9.976;2023-06-14T14:29:32;3.30;;;2.55;;
14748;SDS011;7466;53.574;9.976;2023-06-14T14:32:00;7.82;;;2.75;;
14748;SDS011;7466;53.574;9.976;2023-06-14T14:34:27;2.80;;;2.60;;
14748;SDS011;7466;53.574;9.976;2023-06-14T14:36:54;4.68;;;2.60;;
14748;SDS011;7466;53.574;9.976;2023-06-14T14:39:21;3.42;;;2.97;;
14748;SDS011;7466;53.574;9.976;2023-06-14T14:41:49;3.38;;;2.55;;
14748;SDS011;7466;53.574;9.976;2023-06-14T14:44:16;3.05;;;2.78;;
14748;SDS011;7466;53.574;9.976;2023-06-14T14:46:44;5.00;;;2.58;;
14748;SDS011;7466;53.574;9.976;2023-06-14T14:49:13;3.97;;;2.72;;
14748;SDS011;7466;53.574;9.976;2023-06-14T14:51:40;6.47;;;2.60;;
14748;SDS011;7466;53.574;9.976;2023-06-14T14:54:10;4.45;;;2.75;;
14748;SDS011;7466;53.574;9.976;2023-06-14T14:56:37;5.43;;;2.40;;
14748;SDS011;7466;53.574;9.976;2023-06-14T14:59:05;3.25;;;2.50;;
14748;SDS011;7466;53.574;9.976;2023-06-14T15:01:32;5.15;;;2.58;;
14748;SDS011;7466;53.574;9.976;2023-06-14T15:03:59;2.83;;;2.58;;
14748;SDS011;7466;53.574;9.976;2023-06-14T15:06:26;5.10;;;2.78;;